Time;durP1;ratioP1;P1;durP2;ratioP2;P2;SDS_P1;SDS_P2;PMS_P1;PMS_P2;Temp;Humidity;BMP_temperature;BMP_pressure;BME280_temperature;BME280_humidity;BME280_pressure;Samples;Min_cycle;Max_cycle;Signal;HPM_P1;HPM_P2
2022/10/26 00:00:52;;;;;;;20.42;11.90;;;10.60;99.90;;;;;;6241799;22;20519;-74
2022/10/26 00:03:18;;;;;;;19.35;12.45;;;10.40;99.90;;;;;;6241502;23;19996;-74
2022/10/26 00:05:44;;;;;;;18.33;13.05;;;10.60;99.90;;;;;;6239625;22;20508;-74
2022/10/26 00:08:10;;;;;;;19.67;13.85;;;10.60;99.90;;;;;;6240367;22;20000;-74
2022/10/26 00:10:37;;;;;;;17.52;11.68;;;10.60;99.90;;;;;;6241609;23;20008;-74
2022/10/26 00:13:04;;;;;;;22.42;11.55;;;10.70;99.90;;;;;;6241092;22;20011;-74
2022/10/26 00:15:30;;;;;;;23.13;14.75;;;10.20;99.90;;;;;;6241539;22;20004;-74
2022/10/26 00:17:56;;;;;;;26.20;15.60;;;10.70;99.90;;;;;;6241258;23;20057;-74
2022/10/26 00:20:21;;;;;;;17.07;13.00;;;10.60;99.90;;;;;;6241341;22;20012;-74
2022/10/26 00:22:47;;;;;;;19.73;14.13;;;10.70;99.90;;;;;;6240985;23;19996;-74
2022/10/26 00:25:12;;;;;;;14.73;12.27;;;10.70;99.90;;;;;;6241460;23;20356;-74
2022/10/26 00:27:38;;;;;;;22.33;15.05;;;10.70;99.90;;;;;;6240751;23;20008;-74
2022/10/26 00:30:05;;;;;;;18.48;13.70;;;10.70;99.90;;;;;;6241181;23;20091;-74
2022/10/26 00:32:31;;;;;;;19.73;14.60;;;10.80;99.90;;;;;;6241488;22;20382;-74
2022/10/26 00:34:56;;;;;;;17.08;14.07;;;10.70;99.90;;;;;;6241266;22;20015;-74
2022/10/26 00:37:22;;;;;;;19.58;15.27;;;10.80;99.90;;;;;;6240584;23;20726;-74
2022/10/26 00:39:48;;;;;;;26.90;15.93;;;10.70;99.90;;;;;;6240791;23;20004;-74
2022/10/26 00:42:20;;;;;;;20.13;15.65;;;10.70;99.90;;;;;;6241388;23;20008;-74
2022/10/26 00:44:46;;;;;;;20.42;15.75;;;10.80;99.90;;;;;;6241111;22;20008;-74
2022/10/26 00:47:37;;;;;;;22.75;15.30;;;10.80;99.90;;;;;;6241266;23;20418;-74
2022/10/26 00:50:09;;;;;;;18.95;13.85;;;10.80;99.90;;;;;;6228160;23;20660;-74
2022/10/26 00:52:35;;;;;;;18.23;13.45;;;10.80;99.90;;;;;;6240993;22;20000;-74
2022/10/26 00:55:01;;;;;;;21.02;16.17;;;10.80;99.90;;;;;;6265049;22;20058;-74
2022/10/26 00:57:27;;;;;;;16.75;12.25;;;10.90;99.90;;;;;;6241044;23;19996;-74
2022/10/26 00:59:55;;;;;;;15.77;13.05;;;11.50;99.90;;;;;;6240614;23;20034;-74
2022/10/26 01:02:20;;;;;;;23.63;14.48;;;10.90;99.90;;;;;;6241066;22;20833;-74
2022/10/26 01:04:46;;;;;;;21.92;14.13;;;10.90;99.90;;;;;;6240627;23;20004;-74
2022/10/26 01:07:13;;;;;;;16.60;13.93;;;10.90;99.90;;;;;;6241236;22;20027;-73
2022/10/26 01:09:38;;;;;;;20.63;16.10;;;11.00;99.90;;;;;;6240776;22;20024;-74
2022/10/26 01:12:04;;;;;;;23.95;14.98;;;11.00;99.90;;;;;;6241147;23;20003;-74
2022/10/26 01:14:31;;;;;;;17.40;14.65;;;11.00;99.90;;;;;;6241472;23;20004;-74
2022/10/26 01:17:22;;;;;;;20.85;14.43;;;11.10;99.90;;;;;;6240662;22;20422;-74
2022/10/26 01:20:20;;;;;;;20.63;15.03;;;11.00;99.90;;;;;;6241698;22;20012;-74
2022/10/26 01:23:24;;;;;;;22.30;14.17;;;10.90;99.90;;;;;;6241851;23;20005;-74
2022/10/26 01:26:27;;;;;;;23.08;12.93;;;11.10;99.90;;;;;;6243050;23;20551;-74
2022/10/26 01:29:21;;;;;;;19.92;14.48;;;11.10;99.90;;;;;;6242587;22;20035;-74
2022/10/26 01:31:56;;;;;;;20.87;14.20;;;11.10;99.90;;;;;;6242767;23;20010;-74
2022/10/26 01:34:42;;;;;;;19.20;13.43;;;11.10;99.90;;;;;;6242480;22;20050;-74
2022/10/26 01:37:18;;;;;;;20.63;12.50;;;11.20;99.90;;;;;;6242841;22;20082;-74
2022/10/26 01:39:46;;;;;;;21.17;14.73;;;11.20;99.90;;;;;;6242738;22;20010;-74
2022/10/26 01:42:15;;;;;;;18.20;13.63;;;11.10;99.90;;;;;;6242683;22;20024;-74
2022/10/26 01:44:56;;;;;;;20.83;14.93;;;11.10;99.90;;;;;;6242856;22;20004;-74
2022/10/26 01:47:23;;;;;;;18.08;14.65;;;11.10;99.90;;;;;;6242840;22;20000;-74
2022/10/26 01:49:57;;;;;;;25.13;15.02;;;11.20;99.90;;;;;;6242100;22;20004;-74
2022/10/26 01:52:23;;;;;;;18.67;14.65;;;11.10;99.90;;;;;;6242699;22;20004;-74
2022/10/26 01:54:48;;;;;;;20.42;12.65;;;11.00;99.90;;;;;;6242960;23;20000;-74
2022/10/26 01:57:19;;;;;;;23.67;12.57;;;11.10;99.90;;;;;;6243158;23;20333;-74
2022/10/26 02:00:02;;;;;;;15.70;11.70;;;11.20;99.90;;;;;;6242799;22;20076;-74
2022/10/26 02:02:38;;;;;;;22.58;12.27;;;11.00;99.90;;;;;;6242539;22;20331;-74
2022/10/26 02:05:19;;;;;;;22.40;12.80;;;11.00;99.90;;;;;;6243253;23;20329;-74
2022/10/26 02:08:15;;;;;;;18.48;11.90;;;10.90;99.90;;;;;;6242642;23;19996;-73
2022/10/26 02:11:05;;;;;;;17.10;12.60;;;10.80;99.90;;;;;;6242695;23;20004;-74
2022/10/26 02:13:43;;;;;;;17.15;12.02;;;10.80;99.90;;;;;;6243035;23;20004;-73
2022/10/26 02:16:24;;;;;;;18.45;12.20;;;10.90;99.90;;;;;;6243049;22;20004;-74
2022/10/26 02:18:49;;;;;;;20.98;12.48;;;11.00;99.90;;;;;;6242035;22;20494;-74
2022/10/26 02:21:20;;;;;;;21.48;13.60;;;11.00;99.90;;;;;;6242500;23;20032;-74
2022/10/26 02:23:47;;;;;;;20.17;13.13;;;11.10;99.90;;;;;;6242594;22;20080;-73
2022/10/26 02:26:17;;;;;;;20.07;12.63;;;11.10;99.90;;;;;;6242792;22;20402;-74
2022/10/26 02:28:49;;;;;;;14.07;11.73;;;11.00;99.90;;;;;;6242109;22;20016;-74
2022/10/26 02:31:16;;;;;;;22.65;13.05;;;11.00;99.90;;;;;;6242439;22;20027;-74
2022/10/26 02:33:47;;;;;;;21.42;13.27;;;11.10;99.90;;;;;;6241605;22;20316;-74
2022/10/26 02:36:18;;;;;;;14.97;12.50;;;11.10;99.90;;;;;;6242552;22;20434;-74
2022/10/26 02:38:46;;;;;;;19.37;14.03;;;11.00;99.90;;;;;;6242314;22;20059;-74
2022/10/26 02:41:13;;;;;;;24.30;14.03;;;13.00;99.90;;;;;;6242044;22;20000;-73
2022/10/26 02:43:47;;;;;;;19.73;14.00;;;11.10;99.90;;;;;;6242266;22;20008;-74
2022/10/26 02:46:19;;;;;;;18.35;13.35;;;11.20;99.90;;;;;;6242021;22;20000;-74
2022/10/26 02:48:44;;;;;;;18.75;13.70;;;11.20;99.90;;;;;;6242500;22;20004;-74
2022/10/26 02:51:32;;;;;;;16.70;13.02;;;11.30;99.90;;;;;;6242325;23;20057;-74
2022/10/26 02:54:06;;;;;;;19.95;13.57;;;11.30;99.90;;;;;;6241411;23;20096;-74
2022/10/26 02:56:47;;;;;;;25.75;13.32;;;11.10;99.90;;;;;;6242026;22;20028;-74
2022/10/26 02:59:14;;;;;;;19.63;12.57;;;11.20;99.90;;;;;;6241993;23;20007;-74
2022/10/26 03:01:41;;;;;;;14.97;11.67;;;11.20;99.90;;;;;;6241399;22;20008;-74
2022/10/26 03:04:07;;;;;;;24.20;14.03;;;11.30;99.90;;;;;;6241795;22;20004;-74
2022/10/26 03:06:32;;;;;;;19.00;12.97;;;11.30;99.90;;;;;;6241836;23;20480;-73
2022/10/26 03:08:58;;;;;;;15.82;11.82;;;11.30;99.90;;;;;;6241887;23;20001;-74
2022/10/26 03:11:23;;;;;;;19.75;12.45;;;11.30;99.90;;;;;;6265804;22;20445;-74
2022/10/26 03:13:49;;;;;;;18.70;12.32;;;11.40;99.90;;;;;;6241877;23;20008;-74
2022/10/26 03:16:15;;;;;;;18.70;12.98;;;;;;;;;;6241511;23;20271;-74
2022/10/26 03:18:40;;;;;;;23.00;13.07;;;11.40;99.90;;;;;;6241750;23;20103;-73
2022/10/26 03:21:06;;;;;;;18.17;11.53;;;11.50;99.90;;;;;;6241879;23;20004;-73
2022/10/26 03:23:31;;;;;;;20.58;12.35;;;11.40;99.90;;;;;;6241984;23;20001;-74
2022/10/26 03:25:58;;;;;;;27.93;13.23;;;11.50;99.90;;;;;;6242003;23;19996;-73
2022/10/26 03:28:23;;;;;;;18.17;12.00;;;11.50;99.90;;;;;;6241735;22;20369;-73
2022/10/26 03:30:49;;;;;;;20.70;12.27;;;11.40;99.90;;;;;;6241526;23;20108;-74
2022/10/26 03:33:15;;;;;;;21.67;12.40;;;11.50;99.90;;;;;;6241864;23;20004;-73
2022/10/26 03:35:40;;;;;;;23.50;13.50;;;11.50;99.90;;;;;;6241603;23;20016;-73
2022/10/26 03:38:06;;;;;;;15.88;11.98;;;11.50;99.90;;;;;;6241741;23;20077;-75
2022/10/26 03:40:31;;;;;;;20.42;12.57;;;11.50;99.90;;;;;;6241914;23;20011;-75
2022/10/26 03:42:57;;;;;;;17.70;13.65;;;11.40;99.90;;;;;;6241223;23;20008;-75
2022/10/26 03:45:22;;;;;;;22.58;14.23;;;11.50;99.90;;;;;;6241121;23;20011;-75
2022/10/26 03:47:48;;;;;;;23.85;16.38;;;11.50;99.90;;;;;;6265412;22;20023;-73
2022/10/26 03:50:18;;;;;;;19.90;14.20;;;11.40;99.90;;;;;;6241912;22;20004;-73
2022/10/26 03:52:46;;;;;;;18.80;12.60;;;11.40;99.90;;;;;;6241003;22;20008;-73
2022/10/26 03:55:11;;;;;;;19.77;13.73;;;11.40;99.90;;;;;;6241892;22;20008;-74
2022/10/26 03:57:42;;;;;;;16.55;11.77;;;11.30;99.90;;;;;;6241499;23;20047;-73
2022/10/26 04:00:14;;;;;;;17.80;11.60;;;11.30;99.90;;;;;;6241093;23;20011;-73
2022/10/26 04:02:39;;;;;;;16.55;11.82;;;11.30;99.90;;;;;;6241871;22;20303;-73
2022/10/26 04:05:06;;;;;;;16.53;12.27;;;11.40;99.90;;;;;;6241748;22;20035;-73
2022/10/26 04:07:31;;;;;;;17.33;10.97;;;11.30;99.90;;;;;;6241873;22;20119;-73
2022/10/26 04:09:57;;;;;;;18.37;12.30;;;11.30;99.90;;;;;;6241761;23;20048;-73
2022/10/26 04:12:22;;;;;;;20.67;12.00;;;11.00;99.90;;;;;;6241731;23;20442;-73
2022/10/26 04:14:48;;;;;;;18.10;12.30;;;11.10;99.90;;;;;;6241132;23;20326;-73
2022/10/26 04:17:13;;;;;;;18.60;11.63;;;11.10;99.90;;;;;;6240180;23;20004;-73
2022/10/26 04:19:39;;;;;;;21.10;12.77;;;11.10;99.90;;;;;;6241306;23;20023;-73
2022/10/26 04:22:04;;;;;;;18.87;12.90;;;11.00;99.90;;;;;;6241251;23;20008;-73
2022/10/26 04:24:30;;;;;;;19.17;12.73;;;11.10;99.90;;;;;;6241489;23;20007;-73
2022/10/26 04:26:56;;;;;;;27.50;13.33;;;11.10;99.90;;;;;;6241052;23;20003;-73
2022/10/26 04:29:21;;;;;;;18.85;11.95;;;11.10;99.90;;;;;;6240553;23;20019;-73
2022/10/26 04:31:47;;;;;;;21.63;13.38;;;11.10;99.90;;;;;;6264979;22;20000;-73
2022/10/26 04:34:12;;;;;;;24.17;15.43;;;11.20;99.90;;;;;;6265607;22;20000;-73
2022/10/26 04:36:38;;;;;;;22.02;13.00;;;11.20;99.90;;;;;;6241121;23;20011;-73
2022/10/26 04:39:03;;;;;;;20.47;12.93;;;11.00;99.90;;;;;;6241330;23;20015;-73
2022/10/26 04:41:29;;;;;;;20.60;12.27;;;11.20;99.90;;;;;;6241536;23;20004;-73
2022/10/26 04:43:54;;;;;;;21.20;12.97;;;11.20;99.90;;;;;;6241074;23;20000;-73
2022/10/26 04:46:20;;;;;;;18.77;12.70;;;11.20;99.90;;;;;;6241670;23;20015;-73
2022/10/26 04:48:47;;;;;;;17.35;11.20;;;11.20;99.90;;;;;;6241482;23;19996;-73
2022/10/26 04:51:13;;;;;;;19.77;12.75;;;11.20;99.90;;;;;;6241406;23;20488;-74
2022/10/26 04:53:38;;;;;;;26.00;14.77;;;11.20;99.90;;;;;;6241153;23;20000;-74
2022/10/26 04:56:04;;;;;;;23.45;13.55;;;11.20;99.90;;;;;;6241324;23;20065;-74
2022/10/26 04:58:29;;;;;;;20.25;13.40;;;11.20;99.90;;;;;;6241125;23;20080;-74
2022/10/26 05:00:55;;;;;;;20.90;13.68;;;11.20;99.90;;;;;;6241134;22;20031;-73
2022/10/26 05:03:21;;;;;;;15.00;12.43;;;11.20;99.90;;;;;;6241895;23;20330;-73
2022/10/26 05:05:46;;;;;;;24.90;14.07;;;11.20;99.90;;;;;;6241178;23;20071;-74
2022/10/26 05:08:13;;;;;;;19.90;12.02;;;11.30;99.90;;;;;;6241512;23;20056;-74
2022/10/26 05:10:39;;;;;;;20.13;13.00;;;11.30;99.90;;;;;;6241498;22;20004;-74
2022/10/26 05:13:04;;;;;;;20.10;12.55;;;11.30;99.90;;;;;;6240590;23;20008;-75
2022/10/26 05:15:30;;;;;;;19.97;11.73;;;11.30;99.90;;;;;;6241557;23;20000;-74
2022/10/26 05:17:56;;;;;;;19.75;12.77;;;11.40;99.90;;;;;;6241223;23;20065;-75
2022/10/26 05:20:28;;;;;;;21.83;11.90;;;11.50;99.90;;;;;;6240812;22;20039;-74
2022/10/26 05:22:53;;;;;;;18.73;11.65;;;11.50;99.90;;;;;;6264722;22;20004;-74
2022/10/26 05:25:19;;;;;;;19.70;12.27;;;11.40;99.90;;;;;;6240711;22;20001;-74
2022/10/26 05:27:44;;;;;;;17.58;12.80;;;11.50;99.90;;;;;;6240139;23;20067;-74
2022/10/26 05:30:10;;;;;;;24.30;12.50;;;11.60;99.90;;;;;;6241166;23;20317;-74
2022/10/26 05:32:36;;;;;;;20.73;12.57;;;11.60;99.90;;;;;;6240492;23;20004;-75
2022/10/26 05:35:01;;;;;;;18.00;11.38;;;11.50;99.90;;;;;;6238890;23;20005;-75
2022/10/26 05:37:28;;;;;;;19.20;11.65;;;11.20;99.90;;;;;;6240748;23;20423;-74
2022/10/26 05:39:54;;;;;;;16.20;11.33;;;11.60;99.90;;;;;;6240727;22;20079;-75
2022/10/26 05:42:19;;;;;;;15.80;11.57;;;11.50;99.90;;;;;;6240144;23;20433;-75
2022/10/26 05:44:45;;;;;;;17.48;12.00;;;11.40;99.90;;;;;;6240674;23;20007;-75
2022/10/26 05:47:11;;;;;;;15.63;11.00;;;11.60;99.90;;;;;;6240914;23;20019;-75
2022/10/26 05:49:36;;;;;;;20.00;12.02;;;11.70;99.90;;;;;;6240210;23;19996;-74
2022/10/26 05:52:02;;;;;;;15.35;11.07;;;11.60;99.90;;;;;;6240783;23;20019;-75
2022/10/26 05:54:28;;;;;;;15.75;12.73;;;11.70;99.90;;;;;;6240100;22;20005;-75
2022/10/26 05:56:54;;;;;;;22.15;12.23;;;11.70;99.90;;;;;;6240555;23;20143;-75
2022/10/26 05:59:19;;;;;;;16.40;11.73;;;11.70;99.90;;;;;;6239425;22;20640;-75
2022/10/26 06:02:10;;;;;;;15.07;11.13;;;11.70;99.90;;;;;;6240802;22;20035;-75
2022/10/26 06:04:42;;;;;;;16.45;10.70;;;11.70;99.90;;;;;;6241162;23;20000;-75
2022/10/26 06:07:13;;;;;;;19.95;11.07;;;11.70;99.90;;;;;;6242989;22;19996;-75
2022/10/26 06:09:40;;;;;;;23.50;12.48;;;11.70;99.90;;;;;;6242263;22;20043;-75
2022/10/26 06:12:06;;;;;;;19.15;10.43;;;11.60;99.90;;;;;;6242822;23;20011;-75
2022/10/26 06:14:33;;;;;;;18.48;11.07;;;11.60;99.90;;;;;;6241128;23;20087;-74
2022/10/26 06:17:26;;;;;;;15.55;9.80;;;11.60;99.90;;;;;;6241128;23;20103;-75
2022/10/26 06:20:07;;;;;;;17.67;12.00;;;11.60;99.90;;;;;;6242627;23;20004;-75
2022/10/26 06:22:36;;;;;;;15.43;10.70;;;11.50;99.90;;;;;;6242824;22;20081;-75
2022/10/26 06:25:39;;;;;;;13.15;9.38;;;11.50;99.90;;;;;;6242072;23;20058;-75
2022/10/26 06:28:07;;;;;;;18.63;9.85;;;11.50;99.90;;;;;;6242361;23;20067;-75
2022/10/26 06:30:33;;;;;;;23.10;12.82;;;11.50;99.90;;;;;;6242489;23;20051;-75
2022/10/26 06:33:00;;;;;;;19.30;11.38;;;11.50;99.90;;;;;;6242468;23;19997;-75
2022/10/26 06:35:40;;;;;;;19.95;12.10;;;11.40;99.90;;;;;;6242118;22;20076;-75
2022/10/26 06:38:20;;;;;;;21.33;12.30;;;11.40;99.90;;;;;;6241937;22;20000;-75
2022/10/26 06:40:50;;;;;;;14.23;11.47;;;11.50;99.90;;;;;;6242423;22;20004;-75
2022/10/26 06:43:26;;;;;;;17.67;11.07;;;11.40;99.90;;;;;;6241667;22;20445;-75
2022/10/26 06:46:28;;;;;;;18.17;10.70;;;11.50;99.90;;;;;;6242513;22;19992;-75
2022/10/26 06:48:56;;;;;;;23.30;12.25;;;11.50;99.90;;;;;;6242264;23;20012;-75
2022/10/26 06:51:24;;;;;;;21.13;11.60;;;11.50;99.90;;;;;;6241887;23;20079;-74
2022/10/26 06:54:07;;;;;;;14.43;10.38;;;11.50;99.90;;;;;;6241214;22;20004;-74
2022/10/26 06:56:33;;;;;;;19.70;10.13;;;12.50;99.90;;;;;;6242183;22;20135;-74
2022/10/26 06:59:06;;;;;;;17.02;10.68;;;11.70;99.90;;;;;;6241790;22;20430;-74
2022/10/26 07:01:32;;;;;;;14.98;9.23;;;11.60;99.90;;;;;;6242037;22;20425;-75
2022/10/26 07:03:57;;;;;;;13.95;9.80;;;11.40;99.90;;;;;;6265605;22;20023;-74
2022/10/26 07:06:24;;;;;;;12.55;9.07;;;11.60;99.90;;;;;;6241538;23;20054;-75
2022/10/26 07:08:49;;;;;;;18.90;10.20;;;11.60;99.90;;;;;;6241467;23;20076;-75
2022/10/26 07:11:15;;;;;;;17.88;10.43;;;11.60;99.90;;;;;;6241430;23;20430;-75
2022/10/26 07:13:40;;;;;;;15.50;11.10;;;11.70;99.90;;;;;;6241663;23;20445;-75
2022/10/26 07:16:06;;;;;;;12.50;8.85;;;11.80;99.90;;;;;;6241796;23;20075;-75
2022/10/26 07:18:31;;;;;;;13.23;9.10;;;11.70;99.90;;;;;;6241378;23;20008;-72
2022/10/26 07:20:58;;;;;;;16.45;9.10;;;11.80;99.90;;;;;;6239842;23;20008;-72
2022/10/26 07:23:23;;;;;;;20.13;10.05;;;11.90;99.90;;;;;;6240210;22;20004;-72
2022/10/26 07:25:49;;;;;;;10.75;9.00;;;11.90;99.90;;;;;;6240645;23;20379;-72
2022/10/26 07:28:14;;;;;;;23.92;11.90;;;12.00;99.90;;;;;;6262735;22;20655;-72
2022/10/26 07:30:40;;;;;;;16.77;8.63;;;12.10;99.90;;;;;;6240750;23;20072;-72
2022/10/26 07:33:09;;;;;;;10.82;9.13;;;12.20;99.90;;;;;;6240728;23;20034;-72
2022/10/26 07:35:34;;;;;;;14.07;8.43;;;12.30;99.90;;;;;;6240250;22;20489;-71
2022/10/26 07:38:00;;;;;;;15.32;8.90;;;12.40;99.90;;;;;;6239964;22;20007;-72
2022/10/26 07:40:26;;;;;;;11.70;8.55;;;12.30;99.90;;;;;;6239253;22;20373;-72
2022/10/26 07:42:56;;;;;;;12.88;8.75;;;12.40;99.90;;;;;;6240383;22;19996;-72
2022/10/26 07:45:22;;;;;;;11.35;7.75;;;12.60;99.90;;;;;;6240539;22;20106;-72
2022/10/26 07:47:48;;;;;;;11.60;8.23;;;12.60;99.90;;;;;;6239925;22;20481;-72
2022/10/26 07:50:14;;;;;;;10.80;6.88;;;12.60;99.90;;;;;;6240210;22;20023;-72
2022/10/26 07:52:40;;;;;;;10.18;6.65;;;12.80;99.90;;;;;;6239840;23;20427;-71
2022/10/26 07:55:10;;;;;;;8.60;6.75;;;12.40;99.90;;;;;;6240482;22;20012;-72
2022/10/26 07:57:35;;;;;;;10.93;7.72;;;12.90;99.90;;;;;;6239767;22;20010;-72
2022/10/26 08:00:02;;;;;;;11.82;8.15;;;12.90;99.90;;;;;;6240383;22;20075;-72
2022/10/26 08:02:27;;;;;;;8.32;5.82;;;12.90;99.90;;;;;;6240395;22;20000;-72
2022/10/26 08:04:53;;;;;;;11.77;6.53;;;12.90;99.90;;;;;;6240063;23;20075;-72
2022/10/26 08:07:19;;;;;;;9.27;6.55;;;12.90;99.90;;;;;;6239322;23;20007;-71
2022/10/26 08:09:44;;;;;;;8.00;6.10;;;13.00;99.90;;;;;;6239100;22;20000;-72
2022/10/26 08:12:12;;;;;;;9.73;6.30;;;13.00;99.90;;;;;;6239990;23;20008;-71
2022/10/26 08:14:37;;;;;;;10.95;6.63;;;13.10;99.90;;;;;;6238418;23;20004;-72
2022/10/26 08:17:03;;;;;;;9.05;6.10;;;13.10;99.90;;;;;;6240472;23;20012;-71
2022/10/26 08:19:28;;;;;;;7.60;5.50;;;13.10;99.90;;;;;;6239597;23;20667;-72
2022/10/26 08:21:54;;;;;;;7.32;5.85;;;13.20;99.90;;;;;;6239336;23;20000;-71
2022/10/26 08:24:20;;;;;;;7.60;6.40;;;13.20;99.90;;;;;;6239877;23;20000;-71
2022/10/26 08:26:45;;;;;;;12.20;5.30;;;13.30;99.90;;;;;;6239752;23;20004;-71
2022/10/26 08:29:11;;;;;;;6.55;4.38;;;13.30;99.90;;;;;;6239757;23;20019;-71
2022/10/26 08:31:36;;;;;;;6.43;4.72;;;13.50;99.90;;;;;;6239429;23;20007;-72
2022/10/26 08:34:03;;;;;;;7.60;5.07;;;13.60;99.90;;;;;;6240420;23;20006;-71
2022/10/26 08:36:28;;;;;;;10.07;5.03;;;13.40;99.90;;;;;;6240498;22;20007;-71
2022/10/26 08:38:54;;;;;;;7.78;4.10;;;13.60;99.90;;;;;;6239857;23;19996;-71
2022/10/26 08:41:43;;;;;;;12.68;4.50;;;13.60;99.90;;;;;;6240265;23;20000;-72
2022/10/26 08:44:44;;;;;;;8.48;3.95;;;13.70;99.90;;;;;;6239826;23;20004;-71
2022/10/26 08:47:17;;;;;;;5.35;3.30;;;13.70;99.90;;;;;;6232632;23;20107;-72
2022/10/26 08:50:08;;;;;;;6.78;3.15;;;13.90;99.90;;;;;;6239929;22;20584;-72
2022/10/26 08:52:43;;;;;;;6.45;3.03;;;13.90;99.90;;;;;;6240791;22;20007;-72
2022/10/26 08:55:17;;;;;;;5.47;3.08;;;14.20;99.90;;;;;;6240486;23;20081;-72
2022/10/26 08:57:46;;;;;;;4.65;3.00;;;14.30;99.90;;;;;;6240478;22;20000;-72
2022/10/26 09:00:22;;;;;;;5.20;3.47;;;14.30;99.90;;;;;;6240874;22;20000;-71
2022/10/26 09:02:50;;;;;;;7.05;2.85;;;14.50;99.90;;;;;;6240785;22;20035;-71
2022/10/26 09:05:18;;;;;;;5.63;3.35;;;14.70;99.90;;;;;;6240104;22;20000;-72
2022/10/26 09:08:03;;;;;;;7.50;3.20;;;14.90;99.90;;;;;;6240554;22;20004;-72
2022/10/26 09:11:01;;;;;;;7.50;3.50;;;15.00;99.90;;;;;;6240283;23;20000;-71
2022/10/26 09:14:08;;;;;;;7.55;3.92;;;15.30;99.90;;;;;;6240473;23;20022;-72
2022/10/26 09:17:04;;;;;;;5.15;3.67;;;15.50;99.90;;;;;;6177230;23;20359;-72
2022/10/26 09:19:47;;;;;;;4.57;3.35;;;15.50;99.90;;;;;;6176478;23;20108;-72
2022/10/26 09:22:40;;;;;;;9.05;4.03;;;15.60;99.90;;;;;;6177159;23;20040;-72
2022/10/26 09:25:21;;;;;;;7.47;4.13;;;15.50;99.90;;;;;;6176340;23;20005;-71
2022/10/26 09:27:52;;;;;;;6.43;3.83;;;15.50;99.90;;;;;;6176533;23;20343;-71
2022/10/26 09:30:20;;;;;;;7.28;4.25;;;15.60;99.90;;;;;;6177074;23;20005;-72
2022/10/26 09:32:48;;;;;;;7.88;5.20;;;16.10;99.90;;;;;;6176895;23;20037;-72
2022/10/26 09:35:24;;;;;;;6.72;4.75;;;15.60;99.90;;;;;;6176957;23;20041;-72
2022/10/26 09:38:02;;;;;;;8.13;5.47;;;15.50;99.90;;;;;;6176966;23;20010;-72
2022/10/26 09:40:44;;;;;;;6.05;4.80;;;15.70;99.90;;;;;;6177837;23;20467;-72
2022/10/26 09:43:17;;;;;;;6.47;4.80;;;15.70;99.90;;;;;;6179408;23;20005;-71
2022/10/26 09:45:49;;;;;;;5.28;4.68;;;15.80;99.90;;;;;;6178388;23;20096;-72
2022/10/26 09:48:33;;;;;;;7.72;5.18;;;15.70;99.90;;;;;;6234355;23;20099;-72
2022/10/26 09:50:59;;;;;;;;;;;16.00;99.90;;;;;;6242922;23;20007;-72
2022/10/26 09:53:25;;;;;;;9.45;5.32;;;16.10;99.90;;;;;;6241781;23;20252;-72
2022/10/26 09:56:11;;;;;;;10.43;4.80;;;18.20;99.90;;;;;;6241912;23;20004;-72
2022/10/26 09:58:41;;;;;;;6.72;5.00;;;16.40;99.90;;;;;;6241488;22;20024;-72
2022/10/26 10:01:39;;;;;;;6.68;4.97;;;16.50;99.90;;;;;;6241740;22;20034;-72
2022/10/26 10:04:24;;;;;;;8.35;4.35;;;16.60;99.90;;;;;;6241655;22;20049;-72
2022/10/26 10:07:12;;;;;;;7.25;4.22;;;16.40;99.90;;;;;;6265750;22;20038;-72
2022/10/26 10:09:37;;;;;;;6.50;3.83;;;16.70;99.90;;;;;;6242342;22;20007;-72
2022/10/26 10:12:04;;;;;;;6.72;3.92;;;16.40;99.90;;;;;;6242196;23;20075;-71
2022/10/26 10:14:56;;;;;;;7.55;3.88;;;16.80;99.90;;;;;;6265827;22;20035;-72
2022/10/26 10:17:23;;;;;;;5.50;4.00;;;16.80;99.90;;;;;;6234352;23;20000;-72
2022/10/26 10:19:50;;;;;;;5.15;4.18;;;16.90;99.90;;;;;;6242100;22;20026;-71
2022/10/26 10:22:17;;;;;;;7.40;3.92;;;16.90;99.90;;;;;;6241975;22;20009;-71
2022/10/26 10:24:53;;;;;;;6.25;4.75;;;16.90;99.90;;;;;;6242074;22;20049;-71
2022/10/26 10:27:19;;;;;;;10.30;4.22;;;16.70;99.90;;;;;;6241965;22;19996;-71
2022/10/26 10:29:58;;;;;;;35.67;4.78;;;17.00;99.90;;;;;;6241919;23;20008;-72
2022/10/26 10:32:31;;;;;;;9.35;3.65;;;17.00;99.90;;;;;;6242227;22;20071;-71
2022/10/26 10:34:59;;;;;;;12.02;3.88;;;17.00;99.90;;;;;;6241950;22;20007;-71
2022/10/26 10:37:37;;;;;;;9.95;4.60;;;17.00;99.90;;;;;;6241890;22;20000;-71
2022/10/26 10:40:05;;;;;;;12.93;4.50;;;17.00;99.90;;;;;;6242091;22;20000;-71
2022/10/26 10:42:34;;;;;;;12.27;4.05;;;17.10;99.90;;;;;;6241819;22;19996;-71
2022/10/26 10:45:01;;;;;;;6.00;3.55;;;17.10;99.90;;;;;;6241504;22;20004;-71
2022/10/26 10:47:30;;;;;;;7.25;3.92;;;17.10;99.90;;;;;;6241736;22;20000;-71
2022/10/26 10:50:05;;;;;;;7.68;4.40;;;17.20;99.90;;;;;;6241706;22;20007;-71
2022/10/26 10:52:33;;;;;;;5.70;3.42;;;17.10;99.90;;;;;;6241489;22;20007;-71
2022/10/26 10:55:14;;;;;;;6.28;3.10;;;17.10;99.90;;;;;;6241959;22;20008;-71
2022/10/26 10:57:58;;;;;;;7.13;3.20;;;17.20;99.90;;;;;;6241478;23;20000;-71
2022/10/26 11:00:26;;;;;;;6.35;2.83;;;17.20;99.90;;;;;;6240925;23;20020;-70
2022/10/26 11:03:19;;;;;;;10.25;4.05;;;17.30;99.90;;;;;;6241618;22;20410;-71
2022/10/26 11:06:27;;;;;;;6.82;3.22;;;17.40;99.90;;;;;;6240305;23;20452;-71
2022/10/26 11:08:55;;;;;;;7.15;3.55;;;17.30;99.90;;;;;;6233471;23;20058;-71
2022/10/26 11:11:31;;;;;;;8.13;3.55;;;17.50;99.90;;;;;;6241575;23;20036;-71
2022/10/26 11:14:26;;;;;;;5.18;2.92;;;17.60;99.90;;;;;;6241276;22;20877;-71
2022/10/26 11:17:02;;;;;;;8.00;3.40;;;17.50;99.90;;;;;;6241536;22;20000;-71
2022/10/26 11:19:46;;;;;;;6.40;3.10;;;17.60;99.90;;;;;;6240753;23;20279;-71
2022/10/26 11:22:38;;;;;;;6.32;3.40;;;17.50;99.90;;;;;;6241502;23;20004;-71
2022/10/26 11:25:34;;;;;;;7.28;3.65;;;17.60;99.90;;;;;;6241696;22;20438;-71
2022/10/26 11:28:15;;;;;;;8.45;3.47;;;17.60;99.90;;;;;;6240647;22;20019;-71
2022/10/26 11:30:46;;;;;;;6.72;3.30;;;17.60;99.90;;;;;;6240830;22;20072;-71
2022/10/26 11:33:19;;;;;;;8.50;4.55;;;17.60;99.90;;;;;;6241384;22;19992;-71
2022/10/26 11:35:56;;;;;;;4.80;3.03;;;17.80;99.90;;;;;;6241253;23;20000;-72
2022/10/26 11:38:37;;;;;;;7.10;2.65;;;17.80;99.90;;;;;;6241197;22;20227;-71
2022/10/26 11:41:12;;;;;;;9.13;3.65;;;17.90;99.90;;;;;;6241444;22;20004;-71
2022/10/26 11:43:43;;;;;;;6.53;2.88;;;18.00;99.90;;;;;;6240482;22;20012;-71
2022/10/26 11:46:20;;;;;;;5.30;3.55;;;17.90;99.90;;;;;;6241325;22;20443;-71
2022/10/26 11:49:12;;;;;;;6.40;3.22;;;18.60;99.90;;;;;;6241054;22;20016;-71
2022/10/26 11:51:47;;;;;;;6.78;3.38;;;18.20;99.90;;;;;;6240761;23;20000;-71
2022/10/26 11:54:27;;;;;;;7.93;3.15;;;19.10;99.90;;;;;;6241109;22;20020;-71
2022/10/26 11:56:55;;;;;;;8.48;4.07;;;18.30;99.90;;;;;;6241285;22;20000;-71
2022/10/26 11:59:25;;;;;;;8.00;4.57;;;19.10;99.90;;;;;;6240834;22;20051;-71
2022/10/26 12:01:55;;;;;;;4.63;3.85;;;18.40;99.90;;;;;;6240501;22;20000;-71
2022/10/26 12:04:24;;;;;;;7.13;3.50;;;19.20;99.90;;;;;;6240432;22;19992;-71
2022/10/26 12:06:52;;;;;;;5.43;3.28;;;18.50;99.90;;;;;;6241165;22;20057;-71
2022/10/26 12:09:25;;;;;;;10.80;3.97;;;18.50;99.90;;;;;;6240811;22;20613;-71
2022/10/26 12:12:13;;;;;;;6.13;2.87;;;18.50;99.90;;;;;;6240297;22;20004;-71
2022/10/26 12:14:45;;;;;;;6.22;2.75;;;18.70;99.90;;;;;;6240886;22;20239;-71
2022/10/26 12:17:17;;;;;;;6.75;3.05;;;18.60;99.90;;;;;;6241203;22;20307;-71
2022/10/26 12:20:17;;;;;;;4.45;3.00;;;18.60;99.90;;;;;;6240984;22;20018;-71
2022/10/26 12:22:43;;;;;;;6.80;3.80;;;18.60;99.90;;;;;;6177824;23;20063;-71
2022/10/26 12:25:14;;;;;;;9.00;3.25;;;18.50;99.90;;;;;;6177640;23;20013;-70
2022/10/26 12:27:40;;;;;;;6.20;3.67;;;18.00;99.90;;;;;;6177002;23;20100;-71
2022/10/26 12:30:17;;;;;;;5.95;3.97;;;18.30;99.90;;;;;;6177939;23;20067;-71
2022/10/26 12:32:42;;;;;;;5.95;3.03;;;18.20;99.90;;;;;;6177510;23;20005;-71
2022/10/26 12:35:29;;;;;;;7.35;3.67;;;18.20;99.90;;;;;;6177912;23;20113;-71
2022/10/26 12:37:55;;;;;;;6.75;3.70;;;18.10;99.90;;;;;;6177580;23;20004;-71
2022/10/26 12:40:31;;;;;;;6.53;3.90;;;18.70;99.90;;;;;;6152636;23;20005;-71
2022/10/26 12:43:17;;;;;;;3.90;3.22;;;18.10;99.90;;;;;;6177834;23;20560;-71
2022/10/26 12:45:44;;;;;;;5.53;3.22;;;18.10;99.90;;;;;;6177027;23;20501;-71
2022/10/26 12:48:26;;;;;;;6.32;3.50;;;18.30;99.90;;;;;;6177140;23;20051;-71
2022/10/26 12:50:52;;;;;;;6.38;3.55;;;18.20;99.90;;;;;;6177629;23;20031;-71
2022/10/26 12:53:20;;;;;;;7.63;3.90;;;18.20;99.90;;;;;;6176967;23;20439;-71
2022/10/26 12:55:49;;;;;;;7.40;3.25;;;18.10;99.90;;;;;;6176806;23;20043;-71
2022/10/26 12:58:32;;;;;;;6.72;3.42;;;18.20;99.90;;;;;;6177820;23;20032;-70